New River Marine Corps Air S, North Carolina
Current Conditions -  °F | °C
As of 5:56 PM on Wednesday 26 Nov 2014 (Local Time) from KNCA Reporting Station
Overcast Overcast  
Wind Chill: 43°   Ceiling: 1400
Heat Index: 48°   Visibility: 10mi
Dew Point: 44°   Wind: 12mph
Humidity: 86%   Direction: 310°NW
Pressure: 29.99"   Gusts: NA
Location:  34.6773°N, 77.5232°W
Report Text: KNCA 262256Z AUTO 31010KT 10SM BKN014 OVC023 09/07 A2999 RMK AO2 SLP158 T00890067
Loading
Personal Weather Stations






























Interactive Weather Map New forecast layout! Learn more

10-Day Weather Forecast

Advertisements
Track Severe Weather on mobile